sensor_id;sensor_type;location;lat;lon;timestamp;P1;durP1;ratioP1;P2;durP2;ratioP2
50012;SDS011;35901;48.694;9.476;2022-08-19T00:00:20;32.00;;;28.93;;
50012;SDS011;35901;48.694;9.476;2022-08-19T00:02:46;32.17;;;28.97;;
50012;SDS011;35901;48.694;9.476;2022-08-19T00:05:12;33.27;;;30.17;;
50012;SDS011;35901;48.694;9.476;2022-08-19T00:07:39;31.40;;;28.60;;
50012;SDS011;35901;48.694;9.476;2022-08-19T00:10:08;32.07;;;29.00;;
50012;SDS011;35901;48.694;9.476;2022-08-19T00:12:34;30.53;;;27.63;;
50012;SDS011;35901;48.694;9.476;2022-08-19T00:15:03;32.83;;;29.80;;
50012;SDS011;35901;48.694;9.476;2022-08-19T00:17:30;33.20;;;30.10;;
50012;SDS011;35901;48.694;9.476;2022-08-19T00:19:56;34.83;;;31.33;;
50012;SDS011;35901;48.694;9.476;2022-08-19T00:22:21;32.43;;;29.33;;
50012;SDS011;35901;48.694;9.476;2022-08-19T00:24:47;30.03;;;27.23;;
50012;SDS011;35901;48.694;9.476;2022-08-19T00:27:13;30.37;;;27.63;;
50012;SDS011;35901;48.694;9.476;2022-08-19T00:29:39;31.87;;;28.77;;
50012;SDS011;35901;48.694;9.476;2022-08-19T00:32:05;30.00;;;27.33;;
50012;SDS011;35901;48.694;9.476;2022-08-19T00:34:31;31.13;;;28.23;;
50012;SDS011;35901;48.694;9.476;2022-08-19T00:36:57;34.13;;;30.73;;
50012;SDS011;35901;48.694;9.476;2022-08-19T00:39:23;35.50;;;31.97;;
50012;SDS011;35901;48.694;9.476;2022-08-19T00:41:49;33.80;;;30.27;;
50012;SDS011;35901;48.694;9.476;2022-08-19T00:44:26;34.90;;;31.53;;
50012;SDS011;35901;48.694;9.476;2022-08-19T00:46:54;33.60;;;30.43;;
50012;SDS011;35901;48.694;9.476;2022-08-19T00:49:26;33.13;;;29.73;;
50012;SDS011;35901;48.694;9.476;2022-08-19T00:52:00;33.90;;;30.60;;
50012;SDS011;35901;48.694;9.476;2022-08-19T00:54:32;32.20;;;29.20;;
50012;SDS011;35901;48.694;9.476;2022-08-19T00:56:58;34.53;;;31.23;;
50012;SDS011;35901;48.694;9.476;2022-08-19T00:59:26;36.83;;;33.23;;
50012;SDS011;35901;48.694;9.476;2022-08-19T01:01:53;37.90;;;34.00;;
50012;SDS011;35901;48.694;9.476;2022-08-19T01:04:19;35.37;;;31.87;;
50012;SDS011;35901;48.694;9.476;2022-08-19T01:06:44;30.70;;;27.80;;
50012;SDS011;35901;48.694;9.476;2022-08-19T01:09:10;37.00;;;33.10;;
50012;SDS011;35901;48.694;9.476;2022-08-19T01:11:38;36.17;;;32.60;;
50012;SDS011;35901;48.694;9.476;2022-08-19T01:14:07;38.17;;;32.97;;
50012;SDS011;35901;48.694;9.476;2022-08-19T01:16:34;36.07;;;32.30;;
50012;SDS011;35901;48.694;9.476;2022-08-19T01:19:02;34.17;;;30.77;;
50012;SDS011;35901;48.694;9.476;2022-08-19T01:21:52;32.53;;;29.33;;
50012;SDS011;35901;48.694;9.476;2022-08-19T01:24:25;36.23;;;32.50;;
50012;SDS011;35901;48.694;9.476;2022-08-19T01:26:51;36.23;;;32.43;;
50012;SDS011;35901;48.694;9.476;2022-08-19T01:29:16;36.10;;;32.27;;
50012;SDS011;35901;48.694;9.476;2022-08-19T01:31:42;33.50;;;29.90;;
50012;SDS011;35901;48.694;9.476;2022-08-19T01:34:08;34.77;;;31.27;;
50012;SDS011;35901;48.694;9.476;2022-08-19T01:36:41;34.27;;;30.70;;
50012;SDS011;35901;48.694;9.476;2022-08-19T01:39:12;34.23;;;30.83;;
50012;SDS011;35901;48.694;9.476;2022-08-19T01:41:41;36.07;;;32.17;;
50012;SDS011;35901;48.694;9.476;2022-08-19T01:44:07;38.10;;;34.00;;
50012;SDS011;35901;48.694;9.476;2022-08-19T01:46:34;35.13;;;31.63;;
50012;SDS011;35901;48.694;9.476;2022-08-19T01:49:01;34.53;;;31.07;;
50012;SDS011;35901;48.694;9.476;2022-08-19T01:51:28;28.33;;;25.63;;
50012;SDS011;35901;48.694;9.476;2022-08-19T01:53:55;29.67;;;26.63;;
50012;SDS011;35901;48.694;9.476;2022-08-19T01:56:21;28.70;;;25.90;;
50012;SDS011;35901;48.694;9.476;2022-08-19T01:58:56;32.40;;;28.73;;
50012;SDS011;35901;48.694;9.476;2022-08-19T02:01:27;29.73;;;26.63;;
50012;SDS011;35901;48.694;9.476;2022-08-19T02:03:57;33.70;;;30.20;;
50012;SDS011;35901;48.694;9.476;2022-08-19T02:06:25;30.60;;;27.50;;
50012;SDS011;35901;48.694;9.476;2022-08-19T02:08:52;30.70;;;27.60;;
50012;SDS011;35901;48.694;9.476;2022-08-19T02:11:22;33.13;;;29.63;;
50012;SDS011;35901;48.694;9.476;2022-08-19T02:13:53;34.77;;;31.10;;
50012;SDS011;35901;48.694;9.476;2022-08-19T02:16:19;34.20;;;30.53;;
50012;SDS011;35901;48.694;9.476;2022-08-19T02:18:46;38.27;;;33.97;;
50012;SDS011;35901;48.694;9.476;2022-08-19T02:21:14;41.70;;;37.20;;
50012;SDS011;35901;48.694;9.476;2022-08-19T02:23:41;39.07;;;33.97;;
50012;SDS011;35901;48.694;9.476;2022-08-19T02:26:07;41.20;;;35.10;;
50012;SDS011;35901;48.694;9.476;2022-08-19T02:28:34;42.57;;;35.70;;
50012;SDS011;35901;48.694;9.476;2022-08-19T02:30:59;43.70;;;36.93;;
50012;SDS011;35901;48.694;9.476;2022-08-19T02:33:27;41.13;;;34.93;;
50012;SDS011;35901;48.694;9.476;2022-08-19T02:35:53;48.03;;;38.10;;
50012;SDS011;35901;48.694;9.476;2022-08-19T02:38:19;44.00;;;37.27;;
50012;SDS011;35901;48.694;9.476;2022-08-19T02:41:33;41.80;;;36.43;;
50012;SDS011;35901;48.694;9.476;2022-08-19T02:43:41;40.77;;;35.97;;
50012;SDS011;35901;48.694;9.476;2022-08-19T02:46:11;42.30;;;36.53;;
50012;SDS011;35901;48.694;9.476;2022-08-19T02:48:39;48.77;;;38.33;;
50012;SDS011;35901;48.694;9.476;2022-08-19T02:51:04;45.10;;;37.50;;
50012;SDS011;35901;48.694;9.476;2022-08-19T02:53:30;45.90;;;39.07;;
50012;SDS011;35901;48.694;9.476;2022-08-19T02:55:56;41.43;;;35.57;;
50012;SDS011;35901;48.694;9.476;2022-08-19T02:58:23;41.53;;;35.87;;
50012;SDS011;35901;48.694;9.476;2022-08-19T03:00:50;42.20;;;35.80;;
50012;SDS011;35901;48.694;9.476;2022-08-19T03:03:18;41.27;;;32.90;;
50012;SDS011;35901;48.694;9.476;2022-08-19T03:05:44;40.90;;;34.67;;
50012;SDS011;35901;48.694;9.476;2022-08-19T03:08:10;45.70;;;36.10;;
50012;SDS011;35901;48.694;9.476;2022-08-19T03:10:44;45.30;;;37.47;;
50012;SDS011;35901;48.694;9.476;2022-08-19T03:13:13;45.93;;;38.37;;
50012;SDS011;35901;48.694;9.476;2022-08-19T03:15:44;51.37;;;39.53;;
50012;SDS011;35901;48.694;9.476;2022-08-19T03:18:11;47.97;;;38.00;;
50012;SDS011;35901;48.694;9.476;2022-08-19T03:20:41;47.60;;;39.23;;
50012;SDS011;35901;48.694;9.476;2022-08-19T03:23:10;46.27;;;37.40;;
50012;SDS011;35901;48.694;9.476;2022-08-19T03:25:42;44.70;;;37.30;;
50012;SDS011;35901;48.694;9.476;2022-08-19T03:28:13;42.67;;;35.27;;
50012;SDS011;35901;48.694;9.476;2022-08-19T03:30:40;42.43;;;35.23;;
50012;SDS011;35901;48.694;9.476;2022-08-19T03:33:07;47.20;;;37.67;;
50012;SDS011;35901;48.694;9.476;2022-08-19T03:35:34;46.83;;;37.43;;
50012;SDS011;35901;48.694;9.476;2022-08-19T03:38:03;46.13;;;38.07;;
50012;SDS011;35901;48.694;9.476;2022-08-19T03:40:31;44.07;;;36.10;;
50012;SDS011;35901;48.694;9.476;2022-08-19T03:43:00;42.43;;;34.67;;
50012;SDS011;35901;48.694;9.476;2022-08-19T03:45:26;41.67;;;33.87;;
50012;SDS011;35901;48.694;9.476;2022-08-19T03:47:52;44.87;;;36.23;;
50012;SDS011;35901;48.694;9.476;2022-08-19T03:50:18;42.53;;;35.93;;
50012;SDS011;35901;48.694;9.476;2022-08-19T03:52:48;47.90;;;38.27;;
50012;SDS011;35901;48.694;9.476;2022-08-19T03:55:15;45.53;;;36.93;;
50012;SDS011;35901;48.694;9.476;2022-08-19T03:57:41;44.83;;;35.37;;
50012;SDS011;35901;48.694;9.476;2022-08-19T04:00:07;45.90;;;36.10;;
50012;SDS011;35901;48.694;9.476;2022-08-19T04:02:34;53.53;;;39.90;;
50012;SDS011;35901;48.694;9.476;2022-08-19T04:04:59;56.07;;;40.57;;
50012;SDS011;35901;48.694;9.476;2022-08-19T04:07:25;49.87;;;37.93;;
50012;SDS011;35901;48.694;9.476;2022-08-19T04:09:51;50.77;;;37.93;;
50012;SDS011;35901;48.694;9.476;2022-08-19T04:12:17;54.07;;;40.23;;
50012;SDS011;35901;48.694;9.476;2022-08-19T04:14:45;52.77;;;38.43;;
50012;SDS011;35901;48.694;9.476;2022-08-19T04:17:11;57.93;;;39.87;;
50012;SDS011;35901;48.694;9.476;2022-08-19T04:19:39;53.10;;;38.70;;
50012;SDS011;35901;48.694;9.476;2022-08-19T04:22:06;60.23;;;42.67;;
50012;SDS011;35901;48.694;9.476;2022-08-19T04:24:32;61.70;;;42.50;;
50012;SDS011;35901;48.694;9.476;2022-08-19T04:27:00;52.10;;;38.57;;
50012;SDS011;35901;48.694;9.476;2022-08-19T04:29:27;55.17;;;40.43;;
50012;SDS011;35901;48.694;9.476;2022-08-19T04:31:55;56.53;;;40.27;;
50012;SDS011;35901;48.694;9.476;2022-08-19T04:34:21;52.47;;;37.73;;
50012;SDS011;35901;48.694;9.476;2022-08-19T04:36:50;59.43;;;39.67;;
50012;SDS011;35901;48.694;9.476;2022-08-19T04:39:18;57.60;;;39.57;;
50012;SDS011;35901;48.694;9.476;2022-08-19T04:41:46;40.97;;;32.57;;
50012;SDS011;35901;48.694;9.476;2022-08-19T04:44:31;52.90;;;36.63;;
50012;SDS011;35901;48.694;9.476;2022-08-19T04:46:59;50.60;;;36.30;;
50012;SDS011;35901;48.694;9.476;2022-08-19T04:49:25;49.70;;;37.03;;
50012;SDS011;35901;48.694;9.476;2022-08-19T04:51:51;50.33;;;37.77;;
50012;SDS011;35901;48.694;9.476;2022-08-19T04:54:19;54.00;;;39.17;;
50012;SDS011;35901;48.694;9.476;2022-08-19T04:56:51;50.23;;;36.00;;
50012;SDS011;35901;48.694;9.476;2022-08-19T04:59:18;49.40;;;34.87;;
50012;SDS011;35901;48.694;9.476;2022-08-19T05:01:45;55.83;;;38.67;;
50012;SDS011;35901;48.694;9.476;2022-08-19T05:04:14;57.03;;;41.20;;
50012;SDS011;35901;48.694;9.476;2022-08-19T05:06:44;57.90;;;39.77;;
50012;SDS011;35901;48.694;9.476;2022-08-19T05:09:10;57.00;;;39.57;;
50012;SDS011;35901;48.694;9.476;2022-08-19T05:11:36;56.70;;;40.13;;
50012;SDS011;35901;48.694;9.476;2022-08-19T05:14:04;53.57;;;38.77;;
50012;SDS011;35901;48.694;9.476;2022-08-19T05:16:30;48.47;;;37.50;;
50012;SDS011;35901;48.694;9.476;2022-08-19T05:18:56;48.70;;;35.23;;
50012;SDS011;35901;48.694;9.476;2022-08-19T05:21:41;53.87;;;38.93;;
50012;SDS011;35901;48.694;9.476;2022-08-19T05:24:27;56.03;;;40.50;;
50012;SDS011;35901;48.694;9.476;2022-08-19T05:26:53;52.03;;;37.97;;
50012;SDS011;35901;48.694;9.476;2022-08-19T05:29:22;50.60;;;37.23;;
50012;SDS011;35901;48.694;9.476;2022-08-19T05:31:51;45.07;;;34.73;;
50012;SDS011;35901;48.694;9.476;2022-08-19T05:34:18;56.17;;;38.37;;
50012;SDS011;35901;48.694;9.476;2022-08-19T05:36:47;50.23;;;38.53;;
50012;SDS011;35901;48.694;9.476;2022-08-19T05:39:15;44.60;;;35.67;;
50012;SDS011;35901;48.694;9.476;2022-08-19T05:41:47;48.10;;;35.77;;
50012;SDS011;35901;48.694;9.476;2022-08-19T05:44:15;43.60;;;34.87;;
50012;SDS011;35901;48.694;9.476;2022-08-19T05:46:45;46.00;;;36.17;;
50012;SDS011;35901;48.694;9.476;2022-08-19T05:49:14;48.87;;;36.07;;
50012;SDS011;35901;48.694;9.476;2022-08-19T05:51:41;41.93;;;32.97;;
50012;SDS011;35901;48.694;9.476;2022-08-19T05:54:07;34.07;;;30.33;;
50012;SDS011;35901;48.694;9.476;2022-08-19T05:56:36;49.23;;;37.50;;
50012;SDS011;35901;48.694;9.476;2022-08-19T05:59:04;45.70;;;35.60;;
50012;SDS011;35901;48.694;9.476;2022-08-19T06:01:33;43.93;;;35.50;;
50012;SDS011;35901;48.694;9.476;2022-08-19T06:03:59;46.57;;;35.17;;
50012;SDS011;35901;48.694;9.476;2022-08-19T06:06:25;48.80;;;37.43;;
50012;SDS011;35901;48.694;9.476;2022-08-19T06:08:51;47.57;;;33.00;;
50012;SDS011;35901;48.694;9.476;2022-08-19T06:11:23;49.57;;;33.33;;
50012;SDS011;35901;48.694;9.476;2022-08-19T06:13:57;49.93;;;34.43;;
50012;SDS011;35901;48.694;9.476;2022-08-19T06:16:26;46.07;;;34.53;;
50012;SDS011;35901;48.694;9.476;2022-08-19T06:18:53;46.83;;;34.63;;
50012;SDS011;35901;48.694;9.476;2022-08-19T06:21:22;51.03;;;37.10;;
50012;SDS011;35901;48.694;9.476;2022-08-19T06:23:50;50.27;;;37.57;;
50012;SDS011;35901;48.694;9.476;2022-08-19T06:26:17;46.30;;;35.63;;
50012;SDS011;35901;48.694;9.476;2022-08-19T06:28:44;55.43;;;40.33;;
50012;SDS011;35901;48.694;9.476;2022-08-19T06:31:22;50.73;;;37.37;;
50012;SDS011;35901;48.694;9.476;2022-08-19T06:33:49;45.30;;;35.17;;
50012;SDS011;35901;48.694;9.476;2022-08-19T06:36:16;49.50;;;38.33;;
50012;SDS011;35901;48.694;9.476;2022-08-19T06:38:47;45.77;;;36.27;;
50012;SDS011;35901;48.694;9.476;2022-08-19T06:41:13;45.47;;;36.20;;
50012;SDS011;35901;48.694;9.476;2022-08-19T06:43:39;38.37;;;31.37;;
50012;SDS011;35901;48.694;9.476;2022-08-19T06:46:09;37.50;;;32.27;;
50012;SDS011;35901;48.694;9.476;2022-08-19T06:48:36;40.50;;;32.43;;
50012;SDS011;35901;48.694;9.476;2022-08-19T06:51:02;38.67;;;32.80;;
50012;SDS011;35901;48.694;9.476;2022-08-19T06:53:30;47.80;;;36.87;;
50012;SDS011;35901;48.694;9.476;2022-08-19T06:55:57;39.30;;;33.23;;
50012;SDS011;35901;48.694;9.476;2022-08-19T06:58:27;38.57;;;32.03;;
50012;SDS011;35901;48.694;9.476;2022-08-19T07:00:58;44.57;;;36.17;;
50012;SDS011;35901;48.694;9.476;2022-08-19T07:03:26;42.63;;;34.07;;
50012;SDS011;35901;48.694;9.476;2022-08-19T07:05:56;44.07;;;36.03;;
50012;SDS011;35901;48.694;9.476;2022-08-19T07:08:24;43.53;;;35.80;;
50012;SDS011;35901;48.694;9.476;2022-08-19T07:10:51;41.70;;;35.23;;
50012;SDS011;35901;48.694;9.476;2022-08-19T07:13:17;37.70;;;32.63;;
50012;SDS011;35901;48.694;9.476;2022-08-19T07:15:42;36.73;;;31.97;;
50012;SDS011;35901;48.694;9.476;2022-08-19T07:18:08;35.40;;;31.47;;
50012;SDS011;35901;48.694;9.476;2022-08-19T07:20:34;36.73;;;31.80;;
50012;SDS011;35901;48.694;9.476;2022-08-19T07:22:59;34.57;;;30.83;;
50012;SDS011;35901;48.694;9.476;2022-08-19T07:25:25;43.17;;;33.43;;
50012;SDS011;35901;48.694;9.476;2022-08-19T07:27:52;35.20;;;31.27;;
50012;SDS011;35901;48.694;9.476;2022-08-19T07:30:18;37.17;;;32.97;;
50012;SDS011;35901;48.694;9.476;2022-08-19T07:32:43;37.40;;;33.07;;
50012;SDS011;35901;48.694;9.476;2022-08-19T07:35:09;35.97;;;32.13;;
50012;SDS011;35901;48.694;9.476;2022-08-19T07:37:35;36.67;;;32.80;;
50012;SDS011;35901;48.694;9.476;2022-08-19T07:40:03;38.77;;;34.40;;
50012;SDS011;35901;48.694;9.476;2022-08-19T07:42:30;39.87;;;33.57;;
50012;SDS011;35901;48.694;9.476;2022-08-19T07:44:56;39.50;;;34.63;;
50012;SDS011;35901;48.694;9.476;2022-08-19T07:47:23;39.70;;;33.93;;
50012;SDS011;35901;48.694;9.476;2022-08-19T07:49:48;39.23;;;34.30;;
50012;SDS011;35901;48.694;9.476;2022-08-19T07:52:14;39.23;;;33.43;;
50012;SDS011;35901;48.694;9.476;2022-08-19T07:54:41;40.77;;;33.70;;
50012;SDS011;35901;48.694;9.476;2022-08-19T07:57:07;41.00;;;35.23;;
50012;SDS011;35901;48.694;9.476;2022-08-19T07:59:33;41.70;;;34.50;;
50012;SDS011;35901;48.694;9.476;2022-08-19T08:02:00;38.53;;;32.60;;
50012;SDS011;35901;48.694;9.476;2022-08-19T08:04:26;37.87;;;32.27;;
50012;SDS011;35901;48.694;9.476;2022-08-19T08:07:11;38.17;;;33.23;;
50012;SDS011;35901;48.694;9.476;2022-08-19T08:09:55;35.37;;;31.57;;
50012;SDS011;35901;48.694;9.476;2022-08-19T08:12:22;38.67;;;32.90;;
50012;SDS011;35901;48.694;9.476;2022-08-19T08:14:56;38.03;;;32.23;;
50012;SDS011;35901;48.694;9.476;2022-08-19T08:17:25;33.33;;;29.87;;
50012;SDS011;35901;48.694;9.476;2022-08-19T08:19:52;36.43;;;32.60;;
50012;SDS011;35901;48.694;9.476;2022-08-19T08:22:19;34.73;;;31.00;;
50012;SDS011;35901;48.694;9.476;2022-08-19T08:25:07;37.53;;;33.40;;
50012;SDS011;35901;48.694;9.476;2022-08-19T08:27:42;40.07;;;34.93;;
50012;SDS011;35901;48.694;9.476;2022-08-19T08:30:10;33.43;;;29.83;;
50012;SDS011;35901;48.694;9.476;2022-08-19T08:32:39;34.00;;;30.43;;
50012;SDS011;35901;48.694;9.476;2022-08-19T08:35:06;34.23;;;30.70;;
50012;SDS011;35901;48.694;9.476;2022-08-19T08:37:33;32.60;;;29.30;;
50012;SDS011;35901;48.694;9.476;2022-08-19T08:40:01;33.83;;;30.17;;
50012;SDS011;35901;48.694;9.476;2022-08-19T08:42:34;33.07;;;29.67;;
50012;SDS011;35901;48.694;9.476;2022-08-19T08:45:14;32.83;;;29.10;;
50012;SDS011;35901;48.694;9.476;2022-08-19T08:47:44;32.57;;;29.17;;
50012;SDS011;35901;48.694;9.476;2022-08-19T08:50:20;31.97;;;28.57;;
50012;SDS011;35901;48.694;9.476;2022-08-19T08:52:53;33.23;;;29.70;;
50012;SDS011;35901;48.694;9.476;2022-08-19T08:55:23;33.13;;;29.67;;
50012;SDS011;35901;48.694;9.476;2022-08-19T08:57:53;33.70;;;30.10;;
50012;SDS011;35901;48.694;9.476;2022-08-19T09:00:40;34.40;;;30.87;;
50012;SDS011;35901;48.694;9.476;2022-08-19T09:03:16;32.50;;;28.90;;
50012;SDS011;35901;48.694;9.476;2022-08-19T09:16:52;32.63;;;29.17;;
50012;SDS011;35901;48.694;9.476;2022-08-19T09:19:18;32.57;;;29.13;;
50012;SDS011;35901;48.694;9.476;2022-08-19T09:21:44;31.70;;;28.37;;
50012;SDS011;35901;48.694;9.476;2022-08-19T09:24:10;31.50;;;28.20;;
50012;SDS011;35901;48.694;9.476;2022-08-19T09:26:36;31.30;;;28.00;;
50012;SDS011;35901;48.694;9.476;2022-08-19T09:29:02;35.07;;;31.33;;
50012;SDS011;35901;48.694;9.476;2022-08-19T09:31:30;30.90;;;27.80;;
50012;SDS011;35901;48.694;9.476;2022-08-19T09:33:57;34.50;;;30.93;;
50012;SDS011;35901;48.694;9.476;2022-08-19T09:36:25;33.43;;;29.80;;
50012;SDS011;35901;48.694;9.476;2022-08-19T09:38:54;34.53;;;30.07;;
50012;SDS011;35901;48.694;9.476;2022-08-19T09:41:22;36.80;;;32.80;;
50012;SDS011;35901;48.694;9.476;2022-08-19T09:43:49;39.33;;;31.60;;
50012;SDS011;35901;48.694;9.476;2022-08-19T09:46:20;32.67;;;29.03;;
50012;SDS011;35901;48.694;9.476;2022-08-19T09:48:47;35.40;;;31.33;;
50012;SDS011;35901;48.694;9.476;2022-08-19T09:51:18;38.13;;;32.43;;
50012;SDS011;35901;48.694;9.476;2022-08-19T09:53:50;36.93;;;31.37;;
50012;SDS011;35901;48.694;9.476;2022-08-19T09:56:19;35.20;;;31.43;;
50012;SDS011;35901;48.694;9.476;2022-08-19T09:58:46;32.93;;;29.00;;
50012;SDS011;35901;48.694;9.476;2022-08-19T10:01:23;33.77;;;30.30;;
50012;SDS011;35901;48.694;9.476;2022-08-19T10:03:54;41.10;;;32.63;;
50012;SDS011;35901;48.694;9.476;2022-08-19T10:06:22;36.40;;;32.40;;
50012;SDS011;35901;48.694;9.476;2022-08-19T10:08:49;37.07;;;32.80;;
50012;SDS011;35901;48.694;9.476;2022-08-19T10:11:17;44.23;;;34.37;;
50012;SDS011;35901;48.694;9.476;2022-08-19T10:13:44;39.43;;;33.03;;
50012;SDS011;35901;48.694;9.476;2022-08-19T10:16:12;40.67;;;33.43;;
50012;SDS011;35901;48.694;9.476;2022-08-19T10:18:40;42.13;;;34.77;;
50012;SDS011;35901;48.694;9.476;2022-08-19T10:23:45;36.50;;;32.63;;
50012;SDS011;35901;48.694;9.476;2022-08-19T10:26:13;36.07;;;32.17;;
50012;SDS011;35901;48.694;9.476;2022-08-19T10:28:41;33.60;;;30.00;;
50012;SDS011;35901;48.694;9.476;2022-08-19T10:31:08;34.97;;;31.03;;
50012;SDS011;35901;48.694;9.476;2022-08-19T10:33:36;40.23;;;33.17;;
50012;SDS011;35901;48.694;9.476;2022-08-19T10:36:06;32.97;;;29.43;;
50012;SDS011;35901;48.694;9.476;2022-08-19T10:38:34;36.43;;;32.53;;
50012;SDS011;35901;48.694;9.476;2022-08-19T10:41:14;34.77;;;30.80;;
50012;SDS011;35901;48.694;9.476;2022-08-19T10:43:42;40.83;;;33.60;;
50012;SDS011;35901;48.694;9.476;2022-08-19T10:46:10;37.97;;;33.87;;
50012;SDS011;35901;48.694;9.476;2022-08-19T10:48:39;36.00;;;32.20;;
50012;SDS011;35901;48.694;9.476;2022-08-19T10:51:06;41.00;;;34.77;;
50012;SDS011;35901;48.694;9.476;2022-08-19T10:53:57;35.23;;;30.50;;
50012;SDS011;35901;48.694;9.476;2022-08-19T10:56:23;33.90;;;30.40;;
50012;SDS011;35901;48.694;9.476;2022-08-19T10:59:08;36.10;;;32.30;;
50012;SDS011;35901;48.694;9.476;2022-08-19T11:01:34;40.03;;;33.10;;
50012;SDS011;35901;48.694;9.476;2022-08-19T11:04:02;35.73;;;31.87;;
50012;SDS011;35901;48.694;9.476;2022-08-19T11:06:31;34.43;;;30.67;;
50012;SDS011;35901;48.694;9.476;2022-08-19T11:08:57;35.73;;;31.53;;
50012;SDS011;35901;48.694;9.476;2022-08-19T11:11:25;37.63;;;32.70;;
50012;SDS011;35901;48.694;9.476;2022-08-19T11:13:51;40.93;;;36.23;;
50012;SDS011;35901;48.694;9.476;2022-08-19T11:16:22;37.57;;;31.67;;
50012;SDS011;35901;48.694;9.476;2022-08-19T11:18:53;36.13;;;28.47;;
50012;SDS011;35901;48.694;9.476;2022-08-19T11:23:50;35.03;;;30.77;;
50012;SDS011;35901;48.694;9.476;2022-08-19T11:26:18;34.90;;;30.97;;
50012;SDS011;35901;48.694;9.476;2022-08-19T11:28:45;37.27;;;33.17;;
50012;SDS011;35901;48.694;9.476;2022-08-19T11:31:12;36.50;;;32.00;;
50012;SDS011;35901;48.694;9.476;2022-08-19T11:33:41;36.80;;;31.17;;
50012;SDS011;35901;48.694;9.476;2022-08-19T11:36:07;35.23;;;31.43;;
50012;SDS011;35901;48.694;9.476;2022-08-19T11:38:33;36.17;;;31.23;;
50012;SDS011;35901;48.694;9.476;2022-08-19T11:41:01;43.57;;;36.37;;
50012;SDS011;35901;48.694;9.476;2022-08-19T11:43:29;33.97;;;30.37;;
50012;SDS011;35901;48.694;9.476;2022-08-19T11:45:56;36.70;;;30.90;;
50012;SDS011;35901;48.694;9.476;2022-08-19T11:48:22;37.03;;;32.00;;
50012;SDS011;35901;48.694;9.476;2022-08-19T11:50:52;35.90;;;32.07;;
50012;SDS011;35901;48.694;9.476;2022-08-19T11:53:20;36.93;;;32.03;;
50012;SDS011;35901;48.694;9.476;2022-08-19T11:55:47;38.40;;;31.90;;
50012;SDS011;35901;48.694;9.476;2022-08-19T11:58:14;34.57;;;30.73;;
50012;SDS011;35901;48.694;9.476;2022-08-19T12:00:42;39.10;;;33.70;;
50012;SDS011;35901;48.694;9.476;2022-08-19T12:03:10;43.90;;;34.70;;
50012;SDS011;35901;48.694;9.476;2022-08-19T12:05:38;40.53;;;34.37;;
50012;SDS011;35901;48.694;9.476;2022-08-19T12:08:05;37.73;;;33.57;;
50012;SDS011;35901;48.694;9.476;2022-08-19T12:10:31;40.93;;;34.13;;
50012;SDS011;35901;48.694;9.476;2022-08-19T12:12:57;34.90;;;31.03;;
50012;SDS011;35901;48.694;9.476;2022-08-19T12:15:23;39.80;;;34.80;;
50012;SDS011;35901;48.694;9.476;2022-08-19T12:17:49;40.70;;;35.53;;
50012;SDS011;35901;48.694;9.476;2022-08-19T12:20:15;42.57;;;35.83;;
50012;SDS011;35901;48.694;9.476;2022-08-19T12:22:42;41.90;;;33.73;;
50012;SDS011;35901;48.694;9.476;2022-08-19T12:25:09;40.80;;;35.30;;
50012;SDS011;35901;48.694;9.476;2022-08-19T12:27:37;44.17;;;36.53;;
50012;SDS011;35901;48.694;9.476;2022-08-19T12:30:04;38.93;;;34.00;;
50012;SDS011;35901;48.694;9.476;2022-08-19T12:32:32;44.97;;;38.07;;
50012;SDS011;35901;48.694;9.476;2022-08-19T12:34:58;49.50;;;38.80;;
50012;SDS011;35901;48.694;9.476;2022-08-19T12:37:23;44.87;;;35.77;;
50012;SDS011;35901;48.694;9.476;2022-08-19T12:39:49;48.37;;;36.63;;
50012;SDS011;35901;48.694;9.476;2022-08-19T12:42:15;37.77;;;32.57;;
50012;SDS011;35901;48.694;9.476;2022-08-19T12:44:42;44.37;;;36.87;;
50012;SDS011;35901;48.694;9.476;2022-08-19T12:47:09;39.57;;;33.77;;
50012;SDS011;35901;48.694;9.476;2022-08-19T12:49:38;37.83;;;32.70;;
50012;SDS011;35901;48.694;9.476;2022-08-19T12:52:04;41.13;;;34.50;;
50012;SDS011;35901;48.694;9.476;2022-08-19T12:54:32;46.07;;;37.87;;
50012;SDS011;35901;48.694;9.476;2022-08-19T12:56:58;42.43;;;35.33;;
50012;SDS011;35901;48.694;9.476;2022-08-19T12:59:24;41.93;;;34.87;;
50012;SDS011;35901;48.694;9.476;2022-08-19T13:01:51;40.70;;;35.43;;
50012;SDS011;35901;48.694;9.476;2022-08-19T13:04:17;40.40;;;34.10;;
50012;SDS011;35901;48.694;9.476;2022-08-19T13:06:43;45.13;;;36.87;;
50012;SDS011;35901;48.694;9.476;2022-08-19T13:09:09;50.40;;;37.03;;
50012;SDS011;35901;48.694;9.476;2022-08-19T13:11:36;47.97;;;37.17;;
50012;SDS011;35901;48.694;9.476;2022-08-19T13:14:02;50.67;;;38.30;;
50012;SDS011;35901;48.694;9.476;2022-08-19T13:16:28;47.33;;;36.43;;
50012;SDS011;35901;48.694;9.476;2022-08-19T13:18:55;49.50;;;37.83;;
50012;SDS011;35901;48.694;9.476;2022-08-19T13:21:22;56.00;;;41.03;;
50012;SDS011;35901;48.694;9.476;2022-08-19T13:23:50;37.70;;;32.63;;
50012;SDS011;35901;48.694;9.476;2022-08-19T13:26:17;47.90;;;37.33;;
50012;SDS011;35901;48.694;9.476;2022-08-19T13:28:43;53.67;;;39.97;;
50012;SDS011;35901;48.694;9.476;2022-08-19T13:31:30;50.37;;;39.17;;
50012;SDS011;35901;48.694;9.476;2022-08-19T13:34:17;52.60;;;39.17;;
50012;SDS011;35901;48.694;9.476;2022-08-19T13:36:45;46.97;;;37.10;;
50012;SDS011;35901;48.694;9.476;2022-08-19T13:39:10;47.50;;;37.40;;
50012;SDS011;35901;48.694;9.476;2022-08-19T13:41:37;45.83;;;36.03;;
50012;SDS011;35901;48.694;9.476;2022-08-19T13:44:12;47.17;;;37.37;;
50012;SDS011;35901;48.694;9.476;2022-08-19T13:46:40;45.77;;;35.30;;
50012;SDS011;35901;48.694;9.476;2022-08-19T13:49:09;47.30;;;37.73;;
50012;SDS011;35901;48.694;9.476;2022-08-19T13:51:35;41.07;;;33.27;;
50012;SDS011;35901;48.694;9.476;2022-08-19T13:54:04;48.00;;;36.37;;
50012;SDS011;35901;48.694;9.476;2022-08-19T13:56:30;42.30;;;36.17;;
50012;SDS011;35901;48.694;9.476;2022-08-19T13:58:56;43.17;;;35.77;;
50012;SDS011;35901;48.694;9.476;2022-08-19T14:01:22;45.33;;;38.23;;
50012;SDS011;35901;48.694;9.476;2022-08-19T14:03:49;49.80;;;40.77;;
50012;SDS011;35901;48.694;9.476;2022-08-19T14:06:14;48.03;;;38.13;;
50012;SDS011;35901;48.694;9.476;2022-08-19T14:08:41;45.17;;;36.47;;
50012;SDS011;35901;48.694;9.476;2022-08-19T14:11:08;45.97;;;38.27;;
50012;SDS011;35901;48.694;9.476;2022-08-19T14:13:34;42.90;;;36.30;;
50012;SDS011;35901;48.694;9.476;2022-08-19T14:16:00;43.63;;;35.93;;
50012;SDS011;35901;48.694;9.476;2022-08-19T14:18:26;44.83;;;37.50;;
50012;SDS011;35901;48.694;9.476;2022-08-19T14:20:52;41.13;;;36.33;;
50012;SDS011;35901;48.694;9.476;2022-08-19T14:23:18;37.27;;;32.23;;
50012;SDS011;35901;48.694;9.476;2022-08-19T14:25:45;39.03;;;34.73;;
50012;SDS011;35901;48.694;9.476;2022-08-19T14:28:11;40.60;;;35.80;;
50012;SDS011;35901;48.694;9.476;2022-08-19T14:30:37;38.80;;;33.80;;
50012;SDS011;35901;48.694;9.476;2022-08-19T14:33:03;35.60;;;31.93;;
50012;SDS011;35901;48.694;9.476;2022-08-19T14:35:30;34.13;;;30.40;;
50012;SDS011;35901;48.694;9.476;2022-08-19T14:38:01;33.57;;;30.07;;
50012;SDS011;35901;48.694;9.476;2022-08-19T14:40:31;35.13;;;31.33;;
50012;SDS011;35901;48.694;9.476;2022-08-19T14:42:58;33.20;;;29.67;;